sensor_id;sensor_type;location;lat;lon;timestamp;temperature;humidity
26262;DHT22;13988;52.446;13.280;2023-12-28T00:02:24;4.00;99.90
26262;DHT22;13988;52.446;13.280;2023-12-28T00:04:50;4.00;99.90
26262;DHT22;13988;52.446;13.280;2023-12-28T00:07:16;4.00;99.90
26262;DHT22;13988;52.446;13.280;2023-12-28T00:09:41;4.00;99.90
26262;DHT22;13988;52.446;13.280;2023-12-28T00:12:07;4.00;99.90
26262;DHT22;13988;52.446;13.280;2023-12-28T00:14:33;4.00;99.90
26262;DHT22;13988;52.446;13.280;2023-12-28T00:16:58;4.00;99.90
26262;DHT22;13988;52.446;13.280;2023-12-28T00:19:24;4.00;99.90
26262;DHT22;13988;52.446;13.280;2023-12-28T00:21:49;3.90;99.90
26262;DHT22;13988;52.446;13.280;2023-12-28T00:24:16;3.90;99.90
26262;DHT22;13988;52.446;13.280;2023-12-28T00:26:42;4.00;99.90
26262;DHT22;13988;52.446;13.280;2023-12-28T00:29:07;3.90;99.90
26262;DHT22;13988;52.446;13.280;2023-12-28T00:31:33;3.90;99.90
26262;DHT22;13988;52.446;13.280;2023-12-28T00:33:58;3.90;99.90
26262;DHT22;13988;52.446;13.280;2023-12-28T00:36:24;3.90;99.90
26262;DHT22;13988;52.446;13.280;2023-12-28T00:38:50;3.90;99.90
26262;DHT22;13988;52.446;13.280;2023-12-28T00:41:15;3.90;99.90
26262;DHT22;13988;52.446;13.280;2023-12-28T00:43:41;4.10;99.90
26262;DHT22;13988;52.446;13.280;2023-12-28T00:46:06;4.10;99.90
26262;DHT22;13988;52.446;13.280;2023-12-28T00:48:32;4.00;99.90
26262;DHT22;13988;52.446;13.280;2023-12-28T00:50:57;4.10;99.90
26262;DHT22;13988;52.446;13.280;2023-12-28T00:53:26;4.00;99.90
26262;DHT22;13988;52.446;13.280;2023-12-28T00:55:52;4.00;99.90
26262;DHT22;13988;52.446;13.280;2023-12-28T00:58:17;4.00;99.90
26262;DHT22;13988;52.446;13.280;2023-12-28T01:00:43;3.90;99.90
26262;DHT22;13988;52.446;13.280;2023-12-28T01:03:09;3.90;99.90
26262;DHT22;13988;52.446;13.280;2023-12-28T01:05:34;3.90;99.90
26262;DHT22;13988;52.446;13.280;2023-12-28T01:08:00;4.00;99.90
26262;DHT22;13988;52.446;13.280;2023-12-28T01:10:26;3.90;99.90
26262;DHT22;13988;52.446;13.280;2023-12-28T01:12:51;3.80;99.90
26262;DHT22;13988;52.446;13.280;2023-12-28T01:15:17;3.80;99.90
26262;DHT22;13988;52.446;13.280;2023-12-28T01:17:43;3.80;99.90
26262;DHT22;13988;52.446;13.280;2023-12-28T01:20:09;3.90;99.90
26262;DHT22;13988;52.446;13.280;2023-12-28T01:22:35;3.90;99.90
26262;DHT22;13988;52.446;13.280;2023-12-28T01:25:01;4.00;99.90
26262;DHT22;13988;52.446;13.280;2023-12-28T01:27:26;4.10;99.90
26262;DHT22;13988;52.446;13.280;2023-12-28T01:29:52;4.30;99.90
26262;DHT22;13988;52.446;13.280;2023-12-28T01:32:17;4.20;99.90
26262;DHT22;13988;52.446;13.280;2023-12-28T01:34:43;4.30;99.90
26262;DHT22;13988;52.446;13.280;2023-12-28T01:37:10;4.50;99.90
26262;DHT22;13988;52.446;13.280;2023-12-28T01:39:35;4.40;99.90
26262;DHT22;13988;52.446;13.280;2023-12-28T01:42:01;4.30;99.90
26262;DHT22;13988;52.446;13.280;2023-12-28T01:44:27;4.30;99.90
26262;DHT22;13988;52.446;13.280;2023-12-28T01:46:53;4.40;99.90
26262;DHT22;13988;52.446;13.280;2023-12-28T01:49:18;4.40;99.90
26262;DHT22;13988;52.446;13.280;2023-12-28T01:51:45;4.30;99.90
26262;DHT22;13988;52.446;13.280;2023-12-28T01:54:11;4.30;99.90
26262;DHT22;13988;52.446;13.280;2023-12-28T01:56:37;4.30;99.90
26262;DHT22;13988;52.446;13.280;2023-12-28T01:59:03;4.40;99.90
26262;DHT22;13988;52.446;13.280;2023-12-28T02:01:29;4.40;99.90
26262;DHT22;13988;52.446;13.280;2023-12-28T02:03:55;4.30;99.90
26262;DHT22;13988;52.446;13.280;2023-12-28T02:06:23;4.20;99.90
26262;DHT22;13988;52.446;13.280;2023-12-28T02:08:49;4.30;99.90
26262;DHT22;13988;52.446;13.280;2023-12-28T02:11:15;4.40;99.90
26262;DHT22;13988;52.446;13.280;2023-12-28T02:13:41;4.60;99.90
26262;DHT22;13988;52.446;13.280;2023-12-28T02:16:12;4.70;99.90
26262;DHT22;13988;52.446;13.280;2023-12-28T02:18:48;4.70;99.90
26262;DHT22;13988;52.446;13.280;2023-12-28T02:21:16;4.80;99.90
26262;DHT22;13988;52.446;13.280;2023-12-28T02:23:48;5.10;99.90
26262;DHT22;13988;52.446;13.280;2023-12-28T02:26:17;5.10;99.90
26262;DHT22;13988;52.446;13.280;2023-12-28T02:28:44;5.00;99.90
26262;DHT22;13988;52.446;13.280;2023-12-28T02:31:17;5.00;99.90
26262;DHT22;13988;52.446;13.280;2023-12-28T02:33:52;5.10;99.90
26262;DHT22;13988;52.446;13.280;2023-12-28T02:36:22;5.40;99.90
26262;DHT22;13988;52.446;13.280;2023-12-28T02:38:48;5.40;99.90
26262;DHT22;13988;52.446;13.280;2023-12-28T02:41:16;5.70;99.90
26262;DHT22;13988;52.446;13.280;2023-12-28T02:43:42;5.80;99.90
26262;DHT22;13988;52.446;13.280;2023-12-28T02:46:07;6.00;99.90
26262;DHT22;13988;52.446;13.280;2023-12-28T02:48:33;6.20;99.90
26262;DHT22;13988;52.446;13.280;2023-12-28T02:50:59;6.30;99.90
26262;DHT22;13988;52.446;13.280;2023-12-28T02:53:24;6.50;99.90
26262;DHT22;13988;52.446;13.280;2023-12-28T02:55:50;6.70;99.90
26262;DHT22;13988;52.446;13.280;2023-12-28T02:58:15;6.90;99.90
26262;DHT22;13988;52.446;13.280;2023-12-28T03:00:41;7.00;99.90
26262;DHT22;13988;52.446;13.280;2023-12-28T03:03:07;7.00;99.90
26262;DHT22;13988;52.446;13.280;2023-12-28T03:05:32;7.20;99.90
26262;DHT22;13988;52.446;13.280;2023-12-28T03:07:58;7.30;99.90
26262;DHT22;13988;52.446;13.280;2023-12-28T03:10:23;7.20;99.90
26262;DHT22;13988;52.446;13.280;2023-12-28T03:12:49;7.20;99.90
26262;DHT22;13988;52.446;13.280;2023-12-28T03:15:15;7.40;99.90
26262;DHT22;13988;52.446;13.280;2023-12-28T03:17:40;7.50;99.90
26262;DHT22;13988;52.446;13.280;2023-12-28T03:20:07;7.40;99.90
26262;DHT22;13988;52.446;13.280;2023-12-28T03:22:33;7.40;99.90
26262;DHT22;13988;52.446;13.280;2023-12-28T03:25:00;7.60;99.90
26262;DHT22;13988;52.446;13.280;2023-12-28T03:27:26;7.60;99.90
26262;DHT22;13988;52.446;13.280;2023-12-28T03:29:51;7.60;99.90
26262;DHT22;13988;52.446;13.280;2023-12-28T03:32:17;7.60;99.90
26262;DHT22;13988;52.446;13.280;2023-12-28T03:34:42;7.70;99.90
26262;DHT22;13988;52.446;13.280;2023-12-28T03:37:08;7.80;99.90
26262;DHT22;13988;52.446;13.280;2023-12-28T03:39:36;7.70;99.90
26262;DHT22;13988;52.446;13.280;2023-12-28T03:42:01;7.70;99.90
26262;DHT22;13988;52.446;13.280;2023-12-28T03:44:27;7.50;99.90
26262;DHT22;13988;52.446;13.280;2023-12-28T03:46:53;7.50;99.90
26262;DHT22;13988;52.446;13.280;2023-12-28T03:49:20;7.40;99.90
26262;DHT22;13988;52.446;13.280;2023-12-28T03:51:46;7.20;99.90
26262;DHT22;13988;52.446;13.280;2023-12-28T03:54:12;7.00;99.90
26262;DHT22;13988;52.446;13.280;2023-12-28T03:56:38;7.10;99.90
26262;DHT22;13988;52.446;13.280;2023-12-28T03:59:08;7.30;99.90
26262;DHT22;13988;52.446;13.280;2023-12-28T04:01:34;7.30;99.90
26262;DHT22;13988;52.446;13.280;2023-12-28T04:04:00;7.30;99.90
26262;DHT22;13988;52.446;13.280;2023-12-28T04:06:25;7.30;99.90
26262;DHT22;13988;52.446;13.280;2023-12-28T04:08:51;7.40;99.90
26262;DHT22;13988;52.446;13.280;2023-12-28T04:11:17;7.50;99.90
26262;DHT22;13988;52.446;13.280;2023-12-28T04:13:42;7.70;99.90
26262;DHT22;13988;52.446;13.280;2023-12-28T04:16:12;7.50;99.90
26262;DHT22;13988;52.446;13.280;2023-12-28T04:18:38;7.60;99.90
26262;DHT22;13988;52.446;13.280;2023-12-28T04:21:03;7.50;99.90
26262;DHT22;13988;52.446;13.280;2023-12-28T04:23:29;7.50;99.90
26262;DHT22;13988;52.446;13.280;2023-12-28T04:25:54;7.60;99.90
26262;DHT22;13988;52.446;13.280;2023-12-28T04:28:20;7.60;99.90
26262;DHT22;13988;52.446;13.280;2023-12-28T04:30:46;7.60;99.90
26262;DHT22;13988;52.446;13.280;2023-12-28T04:33:11;7.50;99.90
26262;DHT22;13988;52.446;13.280;2023-12-28T04:35:37;7.60;99.90
26262;DHT22;13988;52.446;13.280;2023-12-28T04:38:03;7.60;99.90
26262;DHT22;13988;52.446;13.280;2023-12-28T04:40:28;7.70;99.90
26262;DHT22;13988;52.446;13.280;2023-12-28T04:42:54;7.60;99.90
26262;DHT22;13988;52.446;13.280;2023-12-28T04:45:20;7.70;99.90
26262;DHT22;13988;52.446;13.280;2023-12-28T04:47:47;7.70;99.90
26262;DHT22;13988;52.446;13.280;2023-12-28T04:50:13;7.80;99.90
26262;DHT22;13988;52.446;13.280;2023-12-28T04:52:38;7.80;99.90
26262;DHT22;13988;52.446;13.280;2023-12-28T04:55:06;7.70;99.90
26262;DHT22;13988;52.446;13.280;2023-12-28T04:57:32;7.80;99.90
26262;DHT22;13988;52.446;13.280;2023-12-28T04:59:57;7.80;99.90
26262;DHT22;13988;52.446;13.280;2023-12-28T05:02:23;7.80;99.90
26262;DHT22;13988;52.446;13.280;2023-12-28T05:04:49;7.70;99.90
26262;DHT22;13988;52.446;13.280;2023-12-28T05:07:14;7.70;99.90
26262;DHT22;13988;52.446;13.280;2023-12-28T05:09:40;7.70;99.90
26262;DHT22;13988;52.446;13.280;2023-12-28T05:12:06;7.90;99.90
26262;DHT22;13988;52.446;13.280;2023-12-28T05:14:32;7.80;99.90
26262;DHT22;13988;52.446;13.280;2023-12-28T05:16:58;7.90;99.90
26262;DHT22;13988;52.446;13.280;2023-12-28T05:19:24;7.80;99.90
26262;DHT22;13988;52.446;13.280;2023-12-28T05:21:49;7.90;99.90
26262;DHT22;13988;52.446;13.280;2023-12-28T05:24:15;8.00;99.90
26262;DHT22;13988;52.446;13.280;2023-12-28T05:26:41;8.10;99.90
26262;DHT22;13988;52.446;13.280;2023-12-28T05:29:06;8.10;99.90
26262;DHT22;13988;52.446;13.280;2023-12-28T05:31:32;8.20;99.90
26262;DHT22;13988;52.446;13.280;2023-12-28T05:33:57;8.30;99.90
26262;DHT22;13988;52.446;13.280;2023-12-28T05:36:24;8.10;99.90
26262;DHT22;13988;52.446;13.280;2023-12-28T05:38:50;8.00;99.90
26262;DHT22;13988;52.446;13.280;2023-12-28T05:41:15;7.90;99.90
26262;DHT22;13988;52.446;13.280;2023-12-28T05:43:41;8.00;99.90
26262;DHT22;13988;52.446;13.280;2023-12-28T05:46:06;8.10;99.90
26262;DHT22;13988;52.446;13.280;2023-12-28T05:48:32;8.10;99.90
26262;DHT22;13988;52.446;13.280;2023-12-28T05:50:58;8.40;99.90
26262;DHT22;13988;52.446;13.280;2023-12-28T05:53:24;8.30;99.90
26262;DHT22;13988;52.446;13.280;2023-12-28T05:55:50;8.40;99.90
26262;DHT22;13988;52.446;13.280;2023-12-28T05:58:16;8.40;99.90
26262;DHT22;13988;52.446;13.280;2023-12-28T06:00:41;8.50;99.90
26262;DHT22;13988;52.446;13.280;2023-12-28T06:03:08;8.50;99.90
26262;DHT22;13988;52.446;13.280;2023-12-28T06:05:34;8.50;99.90
26262;DHT22;13988;52.446;13.280;2023-12-28T06:07:59;8.50;99.90
26262;DHT22;13988;52.446;13.280;2023-12-28T06:10:25;8.40;99.90
26262;DHT22;13988;52.446;13.280;2023-12-28T06:12:50;8.40;99.90
26262;DHT22;13988;52.446;13.280;2023-12-28T06:15:16;8.40;99.90
26262;DHT22;13988;52.446;13.280;2023-12-28T06:17:42;8.60;99.90
26262;DHT22;13988;52.446;13.280;2023-12-28T06:20:08;8.50;99.90
26262;DHT22;13988;52.446;13.280;2023-12-28T06:22:37;8.50;99.90
26262;DHT22;13988;52.446;13.280;2023-12-28T06:25:02;8.50;99.90
26262;DHT22;13988;52.446;13.280;2023-12-28T06:27:29;8.50;99.90
26262;DHT22;13988;52.446;13.280;2023-12-28T06:29:55;8.40;99.90
26262;DHT22;13988;52.446;13.280;2023-12-28T06:32:20;8.40;99.90
26262;DHT22;13988;52.446;13.280;2023-12-28T06:34:46;8.50;99.90
26262;DHT22;13988;52.446;13.280;2023-12-28T06:37:12;8.30;99.90
26262;DHT22;13988;52.446;13.280;2023-12-28T06:39:38;8.40;99.90
26262;DHT22;13988;52.446;13.280;2023-12-28T06:42:04;8.40;99.90
26262;DHT22;13988;52.446;13.280;2023-12-28T06:44:30;8.40;99.90
26262;DHT22;13988;52.446;13.280;2023-12-28T06:46:56;8.30;99.90
26262;DHT22;13988;52.446;13.280;2023-12-28T06:49:21;8.30;99.90
26262;DHT22;13988;52.446;13.280;2023-12-28T06:51:47;8.30;99.90
26262;DHT22;13988;52.446;13.280;2023-12-28T06:54:16;8.30;99.90
26262;DHT22;13988;52.446;13.280;2023-12-28T06:56:42;8.30;99.90
26262;DHT22;13988;52.446;13.280;2023-12-28T06:59:08;8.40;99.90
26262;DHT22;13988;52.446;13.280;2023-12-28T07:01:38;8.40;99.90
26262;DHT22;13988;52.446;13.280;2023-12-28T07:04:04;8.40;99.90
26262;DHT22;13988;52.446;13.280;2023-12-28T07:06:30;8.40;99.90
26262;DHT22;13988;52.446;13.280;2023-12-28T07:08:55;8.40;99.90
26262;DHT22;13988;52.446;13.280;2023-12-28T07:11:21;8.30;99.90
26262;DHT22;13988;52.446;13.280;2023-12-28T07:13:46;8.20;99.90
26262;DHT22;13988;52.446;13.280;2023-12-28T07:16:13;8.20;99.90
26262;DHT22;13988;52.446;13.280;2023-12-28T07:18:38;8.20;99.90
26262;DHT22;13988;52.446;13.280;2023-12-28T07:21:04;8.20;99.90
26262;DHT22;13988;52.446;13.280;2023-12-28T07:23:31;8.20;99.90
26262;DHT22;13988;52.446;13.280;2023-12-28T07:25:57;8.20;99.90
26262;DHT22;13988;52.446;13.280;2023-12-28T07:28:23;8.20;99.90
26262;DHT22;13988;52.446;13.280;2023-12-28T07:30:48;8.30;99.90
26262;DHT22;13988;52.446;13.280;2023-12-28T07:33:14;8.30;99.90
26262;DHT22;13988;52.446;13.280;2023-12-28T07:35:39;8.30;99.90
26262;DHT22;13988;52.446;13.280;2023-12-28T07:38:05;8.20;99.90
26262;DHT22;13988;52.446;13.280;2023-12-28T07:40:31;8.20;99.90
26262;DHT22;13988;52.446;13.280;2023-12-28T07:42:57;8.20;99.90
26262;DHT22;13988;52.446;13.280;2023-12-28T07:45:23;8.30;99.90
26262;DHT22;13988;52.446;13.280;2023-12-28T07:47:50;8.30;99.90
26262;DHT22;13988;52.446;13.280;2023-12-28T07:50:16;8.30;99.90
26262;DHT22;13988;52.446;13.280;2023-12-28T07:52:42;8.20;99.90
26262;DHT22;13988;52.446;13.280;2023-12-28T07:55:08;8.20;99.90
26262;DHT22;13988;52.446;13.280;2023-12-28T07:57:35;8.30;99.90
26262;DHT22;13988;52.446;13.280;2023-12-28T08:00:01;8.30;99.90
26262;DHT22;13988;52.446;13.280;2023-12-28T08:02:27;8.40;99.90
26262;DHT22;13988;52.446;13.280;2023-12-28T08:04:53;8.40;99.90
26262;DHT22;13988;52.446;13.280;2023-12-28T08:07:18;8.40;99.90
26262;DHT22;13988;52.446;13.280;2023-12-28T08:09:44;8.30;99.90
26262;DHT22;13988;52.446;13.280;2023-12-28T08:12:10;8.40;99.90
26262;DHT22;13988;52.446;13.280;2023-12-28T08:14:36;8.40;99.90
26262;DHT22;13988;52.446;13.280;2023-12-28T08:17:01;8.60;99.90
26262;DHT22;13988;52.446;13.280;2023-12-28T08:19:27;8.40;99.90
26262;DHT22;13988;52.446;13.280;2023-12-28T08:21:53;8.40;99.90
26262;DHT22;13988;52.446;13.280;2023-12-28T08:24:18;8.50;99.90
26262;DHT22;13988;52.446;13.280;2023-12-28T08:26:44;8.60;99.90
26262;DHT22;13988;52.446;13.280;2023-12-28T08:29:09;8.60;99.90
26262;DHT22;13988;52.446;13.280;2023-12-28T08:31:35;8.70;99.90
26262;DHT22;13988;52.446;13.280;2023-12-28T08:34:01;8.60;99.90
26262;DHT22;13988;52.446;13.280;2023-12-28T08:36:26;8.60;99.90
26262;DHT22;13988;52.446;13.280;2023-12-28T08:38:52;8.60;99.90
26262;DHT22;13988;52.446;13.280;2023-12-28T08:41:21;8.60;99.90
26262;DHT22;13988;52.446;13.280;2023-12-28T08:43:49;8.50;99.90
26262;DHT22;13988;52.446;13.280;2023-12-28T08:46:15;8.60;99.90
26262;DHT22;13988;52.446;13.280;2023-12-28T08:48:42;8.60;99.90
26262;DHT22;13988;52.446;13.280;2023-12-28T08:51:09;8.60;99.90
26262;DHT22;13988;52.446;13.280;2023-12-28T08:53:35;8.60;99.90
26262;DHT22;13988;52.446;13.280;2023-12-28T08:56:01;8.70;99.90
26262;DHT22;13988;52.446;13.280;2023-12-28T08:58:27;8.70;99.90
26262;DHT22;13988;52.446;13.280;2023-12-28T09:00:53;8.70;99.90
26262;DHT22;13988;52.446;13.280;2023-12-28T09:03:18;8.70;99.90
26262;DHT22;13988;52.446;13.280;2023-12-28T09:05:44;8.80;99.90
26262;DHT22;13988;52.446;13.280;2023-12-28T09:08:10;8.70;99.90
26262;DHT22;13988;52.446;13.280;2023-12-28T09:10:35;8.80;99.90
26262;DHT22;13988;52.446;13.280;2023-12-28T09:13:06;8.70;99.90
26262;DHT22;13988;52.446;13.280;2023-12-28T09:15:31;8.70;99.90
26262;DHT22;13988;52.446;13.280;2023-12-28T09:17:57;8.60;99.90
26262;DHT22;13988;52.446;13.280;2023-12-28T09:20:23;8.70;99.90
26262;DHT22;13988;52.446;13.280;2023-12-28T09:22:48;8.70;99.90
26262;DHT22;13988;52.446;13.280;2023-12-28T09:25:18;8.60;99.90
26262;DHT22;13988;52.446;13.280;2023-12-28T09:27:44;8.70;99.90
26262;DHT22;13988;52.446;13.280;2023-12-28T09:30:10;8.70;99.90
26262;DHT22;13988;52.446;13.280;2023-12-28T09:32:36;8.70;99.90
26262;DHT22;13988;52.446;13.280;2023-12-28T09:35:01;8.70;99.90
26262;DHT22;13988;52.446;13.280;2023-12-28T09:37:27;8.60;99.90
26262;DHT22;13988;52.446;13.280;2023-12-28T09:39:52;8.70;99.90
26262;DHT22;13988;52.446;13.280;2023-12-28T09:42:26;8.60;99.90
26262;DHT22;13988;52.446;13.280;2023-12-28T09:44:54;8.60;99.90
26262;DHT22;13988;52.446;13.280;2023-12-28T09:47:20;8.70;99.90
26262;DHT22;13988;52.446;13.280;2023-12-28T09:49:47;8.70;99.90
26262;DHT22;13988;52.446;13.280;2023-12-28T09:52:12;8.70;99.90
26262;DHT22;13988;52.446;13.280;2023-12-28T09:54:38;8.60;99.90
26262;DHT22;13988;52.446;13.280;2023-12-28T09:57:04;8.60;99.90
26262;DHT22;13988;52.446;13.280;2023-12-28T09:59:31;8.50;99.90
26262;DHT22;13988;52.446;13.280;2023-12-28T10:01:58;8.60;99.90
26262;DHT22;13988;52.446;13.280;2023-12-28T10:04:26;8.70;99.90
26262;DHT22;13988;52.446;13.280;2023-12-28T10:06:54;8.60;99.90
26262;DHT22;13988;52.446;13.280;2023-12-28T10:09:21;8.60;99.90
26262;DHT22;13988;52.446;13.280;2023-12-28T10:11:47;8.70;99.90
26262;DHT22;13988;52.446;13.280;2023-12-28T10:14:13;8.70;99.90
26262;DHT22;13988;52.446;13.280;2023-12-28T10:16:42;8.70;99.90
26262;DHT22;13988;52.446;13.280;2023-12-28T10:19:07;8.70;99.90
26262;DHT22;13988;52.446;13.280;2023-12-28T10:21:33;8.60;99.90
26262;DHT22;13988;52.446;13.280;2023-12-28T10:23:59;8.60;99.90
26262;DHT22;13988;52.446;13.280;2023-12-28T10:26:25;8.70;99.90
26262;DHT22;13988;52.446;13.280;2023-12-28T10:29:00;8.60;99.90
26262;DHT22;13988;52.446;13.280;2023-12-28T10:31:26;8.70;99.90
26262;DHT22;13988;52.446;13.280;2023-12-28T10:33:52;8.70;99.90
26262;DHT22;13988;52.446;13.280;2023-12-28T10:36:19;8.80;99.90
26262;DHT22;13988;52.446;13.280;2023-12-28T10:38:47;8.90;99.90
26262;DHT22;13988;52.446;13.280;2023-12-28T10:41:15;8.90;99.90
26262;DHT22;13988;52.446;13.280;2023-12-28T10:44:00;9.00;99.90
26262;DHT22;13988;52.446;13.280;2023-12-28T10:46:31;9.00;99.90
26262;DHT22;13988;52.446;13.280;2023-12-28T10:49:05;9.00;99.90
26262;DHT22;13988;52.446;13.280;2023-12-28T10:51:35;9.00;99.90
26262;DHT22;13988;52.446;13.280;2023-12-28T10:56:49;9.00;99.90
26262;DHT22;13988;52.446;13.280;2023-12-28T11:01:56;9.10;99.90
26262;DHT22;13988;52.446;13.280;2023-12-28T11:04:36;9.20;99.90
26262;DHT22;13988;52.446;13.280;2023-12-28T11:07:05;9.20;99.90
26262;DHT22;13988;52.446;13.280;2023-12-28T11:09:33;9.30;99.90
26262;DHT22;13988;52.446;13.280;2023-12-28T11:12:00;9.30;99.90
26262;DHT22;13988;52.446;13.280;2023-12-28T11:14:27;9.40;99.90
26262;DHT22;13988;52.446;13.280;2023-12-28T11:16:54;9.50;99.90
26262;DHT22;13988;52.446;13.280;2023-12-28T11:19:21;9.70;99.90
26262;DHT22;13988;52.446;13.280;2023-12-28T11:21:48;9.80;99.90
26262;DHT22;13988;52.446;13.280;2023-12-28T11:24:16;9.90;99.90
26262;DHT22;13988;52.446;13.280;2023-12-28T11:26:42;10.00;99.90
26262;DHT22;13988;52.446;13.280;2023-12-28T11:29:08;9.90;99.90
26262;DHT22;13988;52.446;13.280;2023-12-28T11:31:34;9.90;99.90
26262;DHT22;13988;52.446;13.280;2023-12-28T11:34:00;9.90;99.90
26262;DHT22;13988;52.446;13.280;2023-12-28T11:39:01;10.00;99.90
26262;DHT22;13988;52.446;13.280;2023-12-28T11:41:27;10.00;99.90
26262;DHT22;13988;52.446;13.280;2023-12-28T11:43:56;10.00;99.90
26262;DHT22;13988;52.446;13.280;2023-12-28T11:46:22;10.00;99.90
26262;DHT22;13988;52.446;13.280;2023-12-28T11:48:48;10.00;99.90
26262;DHT22;13988;52.446;13.280;2023-12-28T11:51:14;10.00;99.90
26262;DHT22;13988;52.446;13.280;2023-12-28T11:53:41;10.20;99.90
26262;DHT22;13988;52.446;13.280;2023-12-28T11:56:07;10.30;99.90
26262;DHT22;13988;52.446;13.280;2023-12-28T11:58:35;10.50;99.90
26262;DHT22;13988;52.446;13.280;2023-12-28T12:01:02;10.50;99.90
26262;DHT22;13988;52.446;13.280;2023-12-28T12:03:27;10.70;99.90
26262;DHT22;13988;52.446;13.280;2023-12-28T12:05:55;10.70;99.90
26262;DHT22;13988;52.446;13.280;2023-12-28T12:08:23;10.70;99.90
26262;DHT22;13988;52.446;13.280;2023-12-28T12:10:59;10.90;99.90
26262;DHT22;13988;52.446;13.280;2023-12-28T12:13:25;11.30;99.90
26262;DHT22;13988;52.446;13.280;2023-12-28T12:15:51;11.80;99.90
26262;DHT22;13988;52.446;13.280;2023-12-28T12:18:17;12.30;99.90
26262;DHT22;13988;52.446;13.280;2023-12-28T12:20:43;12.50;99.90
26262;DHT22;13988;52.446;13.280;2023-12-28T12:23:09;12.30;99.90
26262;DHT22;13988;52.446;13.280;2023-12-28T12:25:36;12.70;99.90
26262;DHT22;13988;52.446;13.280;2023-12-28T12:28:02;12.70;99.90
26262;DHT22;13988;52.446;13.280;2023-12-28T12:30:29;12.10;99.90
26262;DHT22;13988;52.446;13.280;2023-12-28T12:32:55;11.60;99.90
26262;DHT22;13988;52.446;13.280;2023-12-28T12:35:20;11.50;99.90
26262;DHT22;13988;52.446;13.280;2023-12-28T12:37:47;11.50;99.90
26262;DHT22;13988;52.446;13.280;2023-12-28T12:40:15;11.30;99.90
26262;DHT22;13988;52.446;13.280;2023-12-28T12:42:41;11.10;99.90
26262;DHT22;13988;52.446;13.280;2023-12-28T12:45:08;10.80;99.90
26262;DHT22;13988;52.446;13.280;2023-12-28T12:47:34;10.70;99.90
26262;DHT22;13988;52.446;13.280;2023-12-28T12:50:00;10.70;99.90
26262;DHT22;13988;52.446;13.280;2023-12-28T12:52:26;10.80;99.90
26262;DHT22;13988;52.446;13.280;2023-12-28T12:54:58;10.90;99.90
26262;DHT22;13988;52.446;13.280;2023-12-28T12:57:27;11.90;99.90
26262;DHT22;13988;52.446;13.280;2023-12-28T12:59:53;12.20;99.90
26262;DHT22;13988;52.446;13.280;2023-12-28T13:02:21;12.40;99.90
26262;DHT22;13988;52.446;13.280;2023-12-28T13:04:47;12.60;99.90
26262;DHT22;13988;52.446;13.280;2023-12-28T13:07:12;12.80;99.90
26262;DHT22;13988;52.446;13.280;2023-12-28T13:09:38;12.10;99.90
26262;DHT22;13988;52.446;13.280;2023-12-28T13:12:04;12.40;99.90
26262;DHT22;13988;52.446;13.280;2023-12-28T13:14:30;12.90;99.90
26262;DHT22;13988;52.446;13.280;2023-12-28T13:16:55;13.20;99.90
26262;DHT22;13988;52.446;13.280;2023-12-28T13:19:21;12.80;99.90
26262;DHT22;13988;52.446;13.280;2023-12-28T13:21:47;12.80;99.90
26262;DHT22;13988;52.446;13.280;2023-12-28T13:24:12;12.80;99.90
26262;DHT22;13988;52.446;13.280;2023-12-28T13:26:38;12.40;99.90
26262;DHT22;13988;52.446;13.280;2023-12-28T13:29:06;12.50;99.90
26262;DHT22;13988;52.446;13.280;2023-12-28T13:31:32;12.60;99.90
26262;DHT22;13988;52.446;13.280;2023-12-28T13:33:58;12.20;99.90
26262;DHT22;13988;52.446;13.280;2023-12-28T13:36:24;12.40;99.90
26262;DHT22;13988;52.446;13.280;2023-12-28T13:38:49;11.70;99.90
26262;DHT22;13988;52.446;13.280;2023-12-28T13:41:15;11.20;99.90
26262;DHT22;13988;52.446;13.280;2023-12-28T13:43:41;10.90;99.90
26262;DHT22;13988;52.446;13.280;2023-12-28T13:46:06;10.80;99.90
26262;DHT22;13988;52.446;13.280;2023-12-28T13:48:32;10.80;99.90
26262;DHT22;13988;52.446;13.280;2023-12-28T13:50:57;10.60;99.90
26262;DHT22;13988;52.446;13.280;2023-12-28T13:53:23;10.50;99.90
26262;DHT22;13988;52.446;13.280;2023-12-28T13:55:49;10.70;99.90
26262;DHT22;13988;52.446;13.280;2023-12-28T13:58:14;11.00;99.90
26262;DHT22;13988;52.446;13.280;2023-12-28T14:00:40;10.80;99.90
26262;DHT22;13988;52.446;13.280;2023-12-28T14:03:06;10.70;99.90
26262;DHT22;13988;52.446;13.280;2023-12-28T14:05:31;10.60;99.90
26262;DHT22;13988;52.446;13.280;2023-12-28T14:07:57;10.50;99.90
26262;DHT22;13988;52.446;13.280;2023-12-28T14:10:23;10.50;99.90
26262;DHT22;13988;52.446;13.280;2023-12-28T14:12:48;10.30;99.90
26262;DHT22;13988;52.446;13.280;2023-12-28T14:15:14;10.40;99.90
26262;DHT22;13988;52.446;13.280;2023-12-28T14:17:42;10.30;99.90
26262;DHT22;13988;52.446;13.280;2023-12-28T14:20:09;10.30;99.90
26262;DHT22;13988;52.446;13.280;2023-12-28T14:22:38;10.30;99.90
26262;DHT22;13988;52.446;13.280;2023-12-28T14:25:04;10.30;99.90
26262;DHT22;13988;52.446;13.280;2023-12-28T14:27:30;10.30;99.90
26262;DHT22;13988;52.446;13.280;2023-12-28T14:29:57;10.30;99.90
26262;DHT22;13988;52.446;13.280;2023-12-28T14:32:23;10.20;99.90
26262;DHT22;13988;52.446;13.280;2023-12-28T14:34:49;10.20;99.90
26262;DHT22;13988;52.446;13.280;2023-12-28T14:37:14;10.10;99.90
26262;DHT22;13988;52.446;13.280;2023-12-28T14:39:40;10.00;99.90
26262;DHT22;13988;52.446;13.280;2023-12-28T14:42:05;10.10;99.90
26262;DHT22;13988;52.446;13.280;2023-12-28T14:44:31;10.00;99.90
26262;DHT22;13988;52.446;13.280;2023-12-28T14:46:57;9.90;99.90
26262;DHT22;13988;52.446;13.280;2023-12-28T14:49:23;9.80;99.90
26262;DHT22;13988;52.446;13.280;2023-12-28T14:51:48;9.70;99.90
26262;DHT22;13988;52.446;13.280;2023-12-28T14:54:14;9.70;99.90
26262;DHT22;13988;52.446;13.280;2023-12-28T14:56:39;9.70;99.90
26262;DHT22;13988;52.446;13.280;2023-12-28T14:59:05;9.60;99.90
26262;DHT22;13988;52.446;13.280;2023-12-28T15:01:31;9.60;99.90
26262;DHT22;13988;52.446;13.280;2023-12-28T15:03:56;9.60;99.90
26262;DHT22;13988;52.446;13.280;2023-12-28T15:06:22;9.50;99.90
26262;DHT22;13988;52.446;13.280;2023-12-28T15:08:47;9.50;99.90
26262;DHT22;13988;52.446;13.280;2023-12-28T15:11:14;9.50;99.90
26262;DHT22;13988;52.446;13.280;2023-12-28T15:13:40;9.40;99.90
26262;DHT22;13988;52.446;13.280;2023-12-28T15:16:06;9.40;99.90
26262;DHT22;13988;52.446;13.280;2023-12-28T15:18:32;9.40;99.90
26262;DHT22;13988;52.446;13.280;2023-12-28T15:20:58;9.30;99.90
26262;DHT22;13988;52.446;13.280;2023-12-28T15:23:24;9.30;99.90
26262;DHT22;13988;52.446;13.280;2023-12-28T15:25:52;9.30;99.90
26262;DHT22;13988;52.446;13.280;2023-12-28T15:28:18;9.30;99.90
26262;DHT22;13988;52.446;13.280;2023-12-28T15:30:43;9.30;99.90